sensor_id;sensor_type;location;lat;lon;timestamp;temperature;humidity
33269;DHT22;19640;50.944;5.260;2022-09-09T00:02:10;16.40;99.90
33269;DHT22;19640;50.944;5.260;2022-09-09T00:04:41;16.30;99.90
33269;DHT22;19640;50.944;5.260;2022-09-09T00:07:53;16.30;99.90
33269;DHT22;19640;50.944;5.260;2022-09-09T00:15:38;16.10;99.90
33269;DHT22;19640;50.944;5.260;2022-09-09T00:18:27;15.90;99.90
33269;DHT22;19640;50.944;5.260;2022-09-09T00:21:05;16.00;99.90
33269;DHT22;19640;50.944;5.260;2022-09-09T00:23:38;15.80;99.90
33269;DHT22;19640;50.944;5.260;2022-09-09T00:31:38;15.70;99.90
33269;DHT22;19640;50.944;5.260;2022-09-09T00:34:18;15.50;99.90
33269;DHT22;19640;50.944;5.260;2022-09-09T00:36:48;15.40;99.90
33269;DHT22;19640;50.944;5.260;2022-09-09T00:39:37;15.30;99.90
33269;DHT22;19640;50.944;5.260;2022-09-09T00:44:53;15.60;99.90
33269;DHT22;19640;50.944;5.260;2022-09-09T00:47:26;15.50;99.90
33269;DHT22;19640;50.944;5.260;2022-09-09T00:52:59;14.90;99.90
33269;DHT22;19640;50.944;5.260;2022-09-09T00:55:54;14.60;99.90
33269;DHT22;19640;50.944;5.260;2022-09-09T00:58:25;14.50;99.90
33269;DHT22;19640;50.944;5.260;2022-09-09T01:00:58;14.40;99.90
33269;DHT22;19640;50.944;5.260;2022-09-09T01:03:41;14.70;99.90
33269;DHT22;19640;50.944;5.260;2022-09-09T01:14:22;14.70;99.90
33269;DHT22;19640;50.944;5.260;2022-09-09T01:16:52;14.50;99.90
33269;DHT22;19640;50.944;5.260;2022-09-09T01:22:30;14.40;99.90
33269;DHT22;19640;50.944;5.260;2022-09-09T01:25:22;14.50;99.90
33269;DHT22;19640;50.944;5.260;2022-09-09T01:27:59;14.70;99.90
33269;DHT22;19640;50.944;5.260;2022-09-09T01:30:26;14.70;99.90
33269;DHT22;19640;50.944;5.260;2022-09-09T01:32:57;14.70;99.90
33269;DHT22;19640;50.944;5.260;2022-09-09T01:37:57;14.90;99.90
33269;DHT22;19640;50.944;5.260;2022-09-09T01:40:23;15.20;99.90
33269;DHT22;19640;50.944;5.260;2022-09-09T01:42:49;15.20;99.90
33269;DHT22;19640;50.944;5.260;2022-09-09T01:45:15;15.00;99.90
33269;DHT22;19640;50.944;5.260;2022-09-09T01:47:41;14.80;99.90
33269;DHT22;19640;50.944;5.260;2022-09-09T01:50:08;14.90;99.90
33269;DHT22;19640;50.944;5.260;2022-09-09T01:52:37;14.90;99.90
33269;DHT22;19640;50.944;5.260;2022-09-09T01:55:04;15.00;99.90
33269;DHT22;19640;50.944;5.260;2022-09-09T02:00:46;15.20;99.90
33269;DHT22;19640;50.944;5.260;2022-09-09T02:03:26;15.10;99.90
33269;DHT22;19640;50.944;5.260;2022-09-09T02:08:33;15.20;99.90
33269;DHT22;19640;50.944;5.260;2022-09-09T02:11:15;15.40;99.90
33269;DHT22;19640;50.944;5.260;2022-09-09T02:13:43;15.40;99.90
33269;DHT22;19640;50.944;5.260;2022-09-09T02:16:15;15.40;99.90
33269;DHT22;19640;50.944;5.260;2022-09-09T02:18:49;15.50;99.90
33269;DHT22;19640;50.944;5.260;2022-09-09T02:21:17;15.70;99.90
33269;DHT22;19640;50.944;5.260;2022-09-09T02:23:43;15.70;99.90
33269;DHT22;19640;50.944;5.260;2022-09-09T02:26:12;15.70;99.90
33269;DHT22;19640;50.944;5.260;2022-09-09T02:28:45;15.60;99.90
33269;DHT22;19640;50.944;5.260;2022-09-09T02:31:11;15.70;99.90
33269;DHT22;19640;50.944;5.260;2022-09-09T02:33:41;15.70;99.90
33269;DHT22;19640;50.944;5.260;2022-09-09T02:36:10;15.70;99.90
33269;DHT22;19640;50.944;5.260;2022-09-09T02:38:47;15.60;99.90
33269;DHT22;19640;50.944;5.260;2022-09-09T02:41:26;15.80;99.90
33269;DHT22;19640;50.944;5.260;2022-09-09T02:43:53;15.80;99.90
33269;DHT22;19640;50.944;5.260;2022-09-09T02:46:27;15.60;99.90
33269;DHT22;19640;50.944;5.260;2022-09-09T02:49:09;15.60;99.90
33269;DHT22;19640;50.944;5.260;2022-09-09T02:56:49;15.80;99.90
33269;DHT22;19640;50.944;5.260;2022-09-09T02:59:17;15.80;99.90
33269;DHT22;19640;50.944;5.260;2022-09-09T03:01:43;15.90;99.90
33269;DHT22;19640;50.944;5.260;2022-09-09T03:04:09;15.80;99.90
33269;DHT22;19640;50.944;5.260;2022-09-09T03:06:35;15.90;99.90
33269;DHT22;19640;50.944;5.260;2022-09-09T03:09:01;15.90;99.90
33269;DHT22;19640;50.944;5.260;2022-09-09T03:11:28;15.90;99.90
33269;DHT22;19640;50.944;5.260;2022-09-09T03:13:54;15.80;99.90
33269;DHT22;19640;50.944;5.260;2022-09-09T03:16:22;15.90;99.90
33269;DHT22;19640;50.944;5.260;2022-09-09T03:18:48;15.80;99.90
33269;DHT22;19640;50.944;5.260;2022-09-09T03:21:13;15.80;99.90
33269;DHT22;19640;50.944;5.260;2022-09-09T03:23:39;15.80;99.90
33269;DHT22;19640;50.944;5.260;2022-09-09T03:26:05;15.90;99.90
33269;DHT22;19640;50.944;5.260;2022-09-09T03:28:31;15.90;99.90
33269;DHT22;19640;50.944;5.260;2022-09-09T03:31:01;15.90;99.90
33269;DHT22;19640;50.944;5.260;2022-09-09T03:33:27;16.00;99.90
33269;DHT22;19640;50.944;5.260;2022-09-09T03:35:53;16.00;99.90
33269;DHT22;19640;50.944;5.260;2022-09-09T03:38:24;16.10;99.90
33269;DHT22;19640;50.944;5.260;2022-09-09T03:40:55;16.00;99.90
33269;DHT22;19640;50.944;5.260;2022-09-09T03:43:25;16.00;99.90
33269;DHT22;19640;50.944;5.260;2022-09-09T03:45:51;15.90;99.90
33269;DHT22;19640;50.944;5.260;2022-09-09T03:48:17;15.90;99.90
33269;DHT22;19640;50.944;5.260;2022-09-09T03:50:47;16.00;99.90
33269;DHT22;19640;50.944;5.260;2022-09-09T03:53:14;15.90;99.90
33269;DHT22;19640;50.944;5.260;2022-09-09T03:55:48;15.90;99.90
33269;DHT22;19640;50.944;5.260;2022-09-09T03:58:15;15.90;99.90
33269;DHT22;19640;50.944;5.260;2022-09-09T04:00:41;15.90;99.90
33269;DHT22;19640;50.944;5.260;2022-09-09T04:03:11;15.90;99.90
33269;DHT22;19640;50.944;5.260;2022-09-09T04:05:39;16.10;99.90
33269;DHT22;19640;50.944;5.260;2022-09-09T04:08:07;16.10;99.90
33269;DHT22;19640;50.944;5.260;2022-09-09T04:10:33;16.00;99.90
33269;DHT22;19640;50.944;5.260;2022-09-09T04:13:01;16.00;99.90
33269;DHT22;19640;50.944;5.260;2022-09-09T04:15:27;16.00;99.90
33269;DHT22;19640;50.944;5.260;2022-09-09T04:17:53;16.00;99.90
33269;DHT22;19640;50.944;5.260;2022-09-09T04:20:19;16.00;99.90
33269;DHT22;19640;50.944;5.260;2022-09-09T04:22:44;16.10;99.90
33269;DHT22;19640;50.944;5.260;2022-09-09T04:25:10;16.00;99.90
33269;DHT22;19640;50.944;5.260;2022-09-09T04:27:36;16.00;99.90
33269;DHT22;19640;50.944;5.260;2022-09-09T04:30:02;15.90;99.90
33269;DHT22;19640;50.944;5.260;2022-09-09T04:32:27;15.80;99.90
33269;DHT22;19640;50.944;5.260;2022-09-09T04:34:53;15.80;99.90
33269;DHT22;19640;50.944;5.260;2022-09-09T04:37:19;15.90;99.90
33269;DHT22;19640;50.944;5.260;2022-09-09T04:39:44;15.80;99.90
33269;DHT22;19640;50.944;5.260;2022-09-09T04:42:11;15.80;99.90
33269;DHT22;19640;50.944;5.260;2022-09-09T04:44:38;15.80;99.90
33269;DHT22;19640;50.944;5.260;2022-09-09T04:47:04;15.90;99.90
33269;DHT22;19640;50.944;5.260;2022-09-09T04:49:30;15.80;99.90
33269;DHT22;19640;50.944;5.260;2022-09-09T04:51:56;15.80;99.90
33269;DHT22;19640;50.944;5.260;2022-09-09T04:54:22;15.70;99.90
33269;DHT22;19640;50.944;5.260;2022-09-09T04:56:51;15.50;99.90
33269;DHT22;19640;50.944;5.260;2022-09-09T04:59:16;15.70;99.90
33269;DHT22;19640;50.944;5.260;2022-09-09T05:01:42;15.60;99.90
33269;DHT22;19640;50.944;5.260;2022-09-09T05:04:08;15.60;99.90
33269;DHT22;19640;50.944;5.260;2022-09-09T05:06:34;15.60;99.90
33269;DHT22;19640;50.944;5.260;2022-09-09T05:09:01;15.60;99.90
33269;DHT22;19640;50.944;5.260;2022-09-09T05:11:29;15.50;99.90
33269;DHT22;19640;50.944;5.260;2022-09-09T05:13:55;15.50;99.90
33269;DHT22;19640;50.944;5.260;2022-09-09T05:16:24;15.50;99.90
33269;DHT22;19640;50.944;5.260;2022-09-09T05:18:50;15.70;99.90
33269;DHT22;19640;50.944;5.260;2022-09-09T05:21:20;15.60;99.90
33269;DHT22;19640;50.944;5.260;2022-09-09T05:23:46;15.60;99.90
33269;DHT22;19640;50.944;5.260;2022-09-09T05:26:17;15.60;99.90
33269;DHT22;19640;50.944;5.260;2022-09-09T05:28:44;15.50;99.90
33269;DHT22;19640;50.944;5.260;2022-09-09T05:31:11;15.50;99.90
33269;DHT22;19640;50.944;5.260;2022-09-09T05:33:39;15.70;99.90
33269;DHT22;19640;50.944;5.260;2022-09-09T05:36:10;15.70;99.90
33269;DHT22;19640;50.944;5.260;2022-09-09T05:38:39;15.80;99.90
33269;DHT22;19640;50.944;5.260;2022-09-09T05:41:05;15.80;99.90
33269;DHT22;19640;50.944;5.260;2022-09-09T05:43:31;15.90;99.90
33269;DHT22;19640;50.944;5.260;2022-09-09T05:46:06;15.90;99.90
33269;DHT22;19640;50.944;5.260;2022-09-09T05:48:35;15.80;99.90
33269;DHT22;19640;50.944;5.260;2022-09-09T05:51:03;15.90;99.90
33269;DHT22;19640;50.944;5.260;2022-09-09T05:53:29;15.90;99.90
33269;DHT22;19640;50.944;5.260;2022-09-09T05:56:11;15.90;99.90
33269;DHT22;19640;50.944;5.260;2022-09-09T05:58:38;15.90;99.90
33269;DHT22;19640;50.944;5.260;2022-09-09T06:01:09;16.00;99.90
33269;DHT22;19640;50.944;5.260;2022-09-09T06:03:39;16.20;99.90
33269;DHT22;19640;50.944;5.260;2022-09-09T06:06:11;16.20;99.90
33269;DHT22;19640;50.944;5.260;2022-09-09T06:08:39;16.10;99.90
33269;DHT22;19640;50.944;5.260;2022-09-09T06:11:06;16.20;99.90
33269;DHT22;19640;50.944;5.260;2022-09-09T06:13:32;16.30;99.90
33269;DHT22;19640;50.944;5.260;2022-09-09T06:15:58;16.40;99.90
33269;DHT22;19640;50.944;5.260;2022-09-09T06:18:25;16.50;99.90
33269;DHT22;19640;50.944;5.260;2022-09-09T06:20:59;16.50;99.90
33269;DHT22;19640;50.944;5.260;2022-09-09T06:23:32;16.40;99.90
33269;DHT22;19640;50.944;5.260;2022-09-09T06:26:09;16.50;99.90
33269;DHT22;19640;50.944;5.260;2022-09-09T06:28:36;16.70;99.90
33269;DHT22;19640;50.944;5.260;2022-09-09T06:31:07;16.80;99.90
33269;DHT22;19640;50.944;5.260;2022-09-09T06:33:35;16.90;99.90
33269;DHT22;19640;50.944;5.260;2022-09-09T06:36:06;16.60;99.90
33269;DHT22;19640;50.944;5.260;2022-09-09T06:38:32;16.70;99.90
33269;DHT22;19640;50.944;5.260;2022-09-09T06:40:59;16.70;99.90
33269;DHT22;19640;50.944;5.260;2022-09-09T06:43:26;16.80;99.90
33269;DHT22;19640;50.944;5.260;2022-09-09T06:48:20;16.90;99.90
33269;DHT22;19640;50.944;5.260;2022-09-09T06:50:45;17.20;99.90
33269;DHT22;19640;50.944;5.260;2022-09-09T06:53:12;17.30;99.90
33269;DHT22;19640;50.944;5.260;2022-09-09T06:55:37;17.30;99.90
33269;DHT22;19640;50.944;5.260;2022-09-09T06:58:08;17.40;99.90
33269;DHT22;19640;50.944;5.260;2022-09-09T07:00:34;17.40;99.90
33269;DHT22;19640;50.944;5.260;2022-09-09T07:02:59;17.30;99.90
33269;DHT22;19640;50.944;5.260;2022-09-09T07:05:25;17.40;99.90
33269;DHT22;19640;50.944;5.260;2022-09-09T07:07:51;17.40;99.90
33269;DHT22;19640;50.944;5.260;2022-09-09T07:10:17;17.50;99.90
33269;DHT22;19640;50.944;5.260;2022-09-09T07:12:43;17.70;99.90
33269;DHT22;19640;50.944;5.260;2022-09-09T07:15:09;17.70;99.90
33269;DHT22;19640;50.944;5.260;2022-09-09T07:17:35;17.70;99.90
33269;DHT22;19640;50.944;5.260;2022-09-09T07:20:01;17.60;99.90
33269;DHT22;19640;50.944;5.260;2022-09-09T07:22:29;17.50;99.90
33269;DHT22;19640;50.944;5.260;2022-09-09T07:24:54;17.70;99.90
33269;DHT22;19640;50.944;5.260;2022-09-09T07:27:20;17.80;99.90
33269;DHT22;19640;50.944;5.260;2022-09-09T07:29:46;17.60;99.90
33269;DHT22;19640;50.944;5.260;2022-09-09T07:32:12;17.50;99.90
33269;DHT22;19640;50.944;5.260;2022-09-09T07:34:37;17.60;99.90
33269;DHT22;19640;50.944;5.260;2022-09-09T07:37:03;17.90;99.90
33269;DHT22;19640;50.944;5.260;2022-09-09T07:39:29;17.90;99.90
33269;DHT22;19640;50.944;5.260;2022-09-09T07:41:55;17.90;99.90
33269;DHT22;19640;50.944;5.260;2022-09-09T07:44:23;17.80;99.90
33269;DHT22;19640;50.944;5.260;2022-09-09T07:46:50;17.90;99.90
33269;DHT22;19640;50.944;5.260;2022-09-09T07:49:15;17.80;99.90
33269;DHT22;19640;50.944;5.260;2022-09-09T07:51:43;17.80;99.90
33269;DHT22;19640;50.944;5.260;2022-09-09T07:54:12;17.70;99.90
33269;DHT22;19640;50.944;5.260;2022-09-09T07:56:39;17.70;99.90
33269;DHT22;19640;50.944;5.260;2022-09-09T07:59:05;17.80;99.90
33269;DHT22;19640;50.944;5.260;2022-09-09T08:01:33;17.80;99.90
33269;DHT22;19640;50.944;5.260;2022-09-09T08:04:01;17.90;99.90
33269;DHT22;19640;50.944;5.260;2022-09-09T08:06:37;17.70;99.90
33269;DHT22;19640;50.944;5.260;2022-09-09T08:09:04;17.60;99.90
33269;DHT22;19640;50.944;5.260;2022-09-09T08:11:29;17.70;99.90
33269;DHT22;19640;50.944;5.260;2022-09-09T08:13:56;17.40;99.90
33269;DHT22;19640;50.944;5.260;2022-09-09T08:16:27;17.70;99.90
33269;DHT22;19640;50.944;5.260;2022-09-09T08:18:53;17.70;99.90
33269;DHT22;19640;50.944;5.260;2022-09-09T08:21:27;17.70;99.90
33269;DHT22;19640;50.944;5.260;2022-09-09T08:23:55;17.60;99.90
33269;DHT22;19640;50.944;5.260;2022-09-09T08:28:52;17.40;99.90
33269;DHT22;19640;50.944;5.260;2022-09-09T08:31:24;17.30;99.90
33269;DHT22;19640;50.944;5.260;2022-09-09T08:33:49;17.40;99.90
33269;DHT22;19640;50.944;5.260;2022-09-09T08:36:18;17.50;99.90
33269;DHT22;19640;50.944;5.260;2022-09-09T08:38:51;17.60;99.90
33269;DHT22;19640;50.944;5.260;2022-09-09T08:52:12;17.40;99.90
33269;DHT22;19640;50.944;5.260;2022-09-09T08:54:38;17.30;99.90
33269;DHT22;19640;50.944;5.260;2022-09-09T08:57:20;17.30;99.90
33269;DHT22;19640;50.944;5.260;2022-09-09T08:59:46;17.50;99.90
33269;DHT22;19640;50.944;5.260;2022-09-09T09:02:21;17.30;99.90
33269;DHT22;19640;50.944;5.260;2022-09-09T09:10:33;17.40;99.90
33269;DHT22;19640;50.944;5.260;2022-09-09T09:13:02;17.30;99.90
33269;DHT22;19640;50.944;5.260;2022-09-09T09:15:36;17.40;99.90
33269;DHT22;19640;50.944;5.260;2022-09-09T09:18:04;17.50;99.90
33269;DHT22;19640;50.944;5.260;2022-09-09T09:23:24;17.70;99.90
33269;DHT22;19640;50.944;5.260;2022-09-09T09:25:54;17.70;99.90
33269;DHT22;19640;50.944;5.260;2022-09-09T09:28:25;17.80;99.90
33269;DHT22;19640;50.944;5.260;2022-09-09T09:30:57;17.90;99.90
33269;DHT22;19640;50.944;5.260;2022-09-09T09:36:15;18.00;99.90
33269;DHT22;19640;50.944;5.260;2022-09-09T09:38:56;18.10;99.90
33269;DHT22;19640;50.944;5.260;2022-09-09T09:41:36;18.10;99.90
33269;DHT22;19640;50.944;5.260;2022-09-09T09:44:03;18.20;99.90
33269;DHT22;19640;50.944;5.260;2022-09-09T09:46:30;18.30;99.90
33269;DHT22;19640;50.944;5.260;2022-09-09T09:48:58;18.20;99.90
33269;DHT22;19640;50.944;5.260;2022-09-09T09:51:24;18.30;99.90
33269;DHT22;19640;50.944;5.260;2022-09-09T09:53:50;18.40;99.90
33269;DHT22;19640;50.944;5.260;2022-09-09T09:56:26;18.30;99.90
33269;DHT22;19640;50.944;5.260;2022-09-09T09:58:55;18.30;99.90
33269;DHT22;19640;50.944;5.260;2022-09-09T10:03:52;18.10;99.90
33269;DHT22;19640;50.944;5.260;2022-09-09T10:06:36;17.90;99.90
33269;DHT22;19640;50.944;5.260;2022-09-09T10:09:18;17.60;99.90
33269;DHT22;19640;50.944;5.260;2022-09-09T10:14:28;17.40;99.90
33269;DHT22;19640;50.944;5.260;2022-09-09T10:19:37;17.20;99.90
33269;DHT22;19640;50.944;5.260;2022-09-09T10:28:07;17.20;99.90
33269;DHT22;19640;50.944;5.260;2022-09-09T10:33:32;17.10;99.90
33269;DHT22;19640;50.944;5.260;2022-09-09T10:36:12;17.10;99.90
33269;DHT22;19640;50.944;5.260;2022-09-09T10:38:39;17.20;99.90
33269;DHT22;19640;50.944;5.260;2022-09-09T10:42:09;17.00;99.90
33269;DHT22;19640;50.944;5.260;2022-09-09T10:55:16;17.20;99.90
33269;DHT22;19640;50.944;5.260;2022-09-09T11:00:22;17.70;99.90
33269;DHT22;19640;50.944;5.260;2022-09-09T11:03:00;18.00;99.90
33269;DHT22;19640;50.944;5.260;2022-09-09T11:08:09;18.00;99.90
33269;DHT22;19640;50.944;5.260;2022-09-09T11:13:49;18.00;99.90
33269;DHT22;19640;50.944;5.260;2022-09-09T11:19:15;17.90;99.90
33269;DHT22;19640;50.944;5.260;2022-09-09T11:21:47;18.00;99.90
33269;DHT22;19640;50.944;5.260;2022-09-09T11:26:47;18.10;99.90
33269;DHT22;19640;50.944;5.260;2022-09-09T11:31:53;18.40;99.90
33269;DHT22;19640;50.944;5.260;2022-09-09T11:34:44;18.40;99.90
33269;DHT22;19640;50.944;5.260;2022-09-09T11:42:35;18.40;99.90
33269;DHT22;19640;50.944;5.260;2022-09-09T11:47:56;18.60;99.90
33269;DHT22;19640;50.944;5.260;2022-09-09T11:52:48;18.30;99.90
33269;DHT22;19640;50.944;5.260;2022-09-09T11:55:25;18.40;99.90
33269;DHT22;19640;50.944;5.260;2022-09-09T12:00:49;18.40;99.90
33269;DHT22;19640;50.944;5.260;2022-09-09T12:03:47;18.50;99.90
33269;DHT22;19640;50.944;5.260;2022-09-09T12:06:32;18.40;99.90
33269;DHT22;19640;50.944;5.260;2022-09-09T12:09:08;18.20;99.90
33269;DHT22;19640;50.944;5.260;2022-09-09T12:11:36;18.30;99.90
33269;DHT22;19640;50.944;5.260;2022-09-09T12:14:02;18.20;99.90
33269;DHT22;19640;50.944;5.260;2022-09-09T12:21:54;18.10;99.90
33269;DHT22;19640;50.944;5.260;2022-09-09T12:32:23;18.30;99.90
33269;DHT22;19640;50.944;5.260;2022-09-09T12:35:34;18.50;99.90
33269;DHT22;19640;50.944;5.260;2022-09-09T12:37:42;18.60;99.90
33269;DHT22;19640;50.944;5.260;2022-09-09T12:40:23;18.90;99.90
33269;DHT22;19640;50.944;5.260;2022-09-09T12:42:50;19.00;99.90
33269;DHT22;19640;50.944;5.260;2022-09-09T12:45:18;19.20;99.90
33269;DHT22;19640;50.944;5.260;2022-09-09T12:50:37;19.50;99.90
33269;DHT22;19640;50.944;5.260;2022-09-09T12:53:07;19.50;99.90
33269;DHT22;19640;50.944;5.260;2022-09-09T12:55:36;19.70;99.90
33269;DHT22;19640;50.944;5.260;2022-09-09T12:58:04;19.70;99.90
33269;DHT22;19640;50.944;5.260;2022-09-09T13:00:32;19.70;99.90
33269;DHT22;19640;50.944;5.260;2022-09-09T13:03:15;19.60;99.90
33269;DHT22;19640;50.944;5.260;2022-09-09T13:05:41;19.70;99.90
33269;DHT22;19640;50.944;5.260;2022-09-09T13:08:12;19.80;99.90
33269;DHT22;19640;50.944;5.260;2022-09-09T13:10:52;19.90;99.90
33269;DHT22;19640;50.944;5.260;2022-09-09T13:13:26;19.90;99.90
33269;DHT22;19640;50.944;5.260;2022-09-09T13:15:56;19.70;99.90
33269;DHT22;19640;50.944;5.260;2022-09-09T13:18:24;19.50;99.90
33269;DHT22;19640;50.944;5.260;2022-09-09T13:20:52;19.50;99.90
33269;DHT22;19640;50.944;5.260;2022-09-09T13:23:19;19.40;99.90
33269;DHT22;19640;50.944;5.260;2022-09-09T13:25:57;19.40;99.90
33269;DHT22;19640;50.944;5.260;2022-09-09T13:28:25;19.50;99.90
33269;DHT22;19640;50.944;5.260;2022-09-09T13:31:22;19.30;99.90
33269;DHT22;19640;50.944;5.260;2022-09-09T13:33:48;19.30;99.90
33269;DHT22;19640;50.944;5.260;2022-09-09T13:36:14;19.30;99.90
33269;DHT22;19640;50.944;5.260;2022-09-09T13:41:34;19.60;99.90
33269;DHT22;19640;50.944;5.260;2022-09-09T13:44:02;19.70;99.90
33269;DHT22;19640;50.944;5.260;2022-09-09T13:46:40;19.90;99.90
33269;DHT22;19640;50.944;5.260;2022-09-09T13:51:46;19.90;99.90
33269;DHT22;19640;50.944;5.260;2022-09-09T13:54:17;19.90;99.90
33269;DHT22;19640;50.944;5.260;2022-09-09T13:56:43;20.10;99.90
33269;DHT22;19640;50.944;5.260;2022-09-09T13:59:13;20.10;99.90
33269;DHT22;19640;50.944;5.260;2022-09-09T14:01:39;20.00;99.90
33269;DHT22;19640;50.944;5.260;2022-09-09T14:04:04;19.90;99.90
33269;DHT22;19640;50.944;5.260;2022-09-09T14:06:35;19.80;99.90
33269;DHT22;19640;50.944;5.260;2022-09-09T14:09:04;19.70;99.90
33269;DHT22;19640;50.944;5.260;2022-09-09T14:11:30;19.80;99.90
33269;DHT22;19640;50.944;5.260;2022-09-09T14:13:55;19.90;99.90
33269;DHT22;19640;50.944;5.260;2022-09-09T14:16:21;19.70;99.90
33269;DHT22;19640;50.944;5.260;2022-09-09T14:18:47;19.70;99.90
33269;DHT22;19640;50.944;5.260;2022-09-09T14:21:14;19.70;99.90
33269;DHT22;19640;50.944;5.260;2022-09-09T14:23:41;19.90;99.90
33269;DHT22;19640;50.944;5.260;2022-09-09T14:26:07;19.70;99.90
33269;DHT22;19640;50.944;5.260;2022-09-09T14:28:33;19.70;99.90
33269;DHT22;19640;50.944;5.260;2022-09-09T14:31:00;19.70;99.90
33269;DHT22;19640;50.944;5.260;2022-09-09T14:33:27;19.70;99.90
33269;DHT22;19640;50.944;5.260;2022-09-09T14:36:02;19.80;99.90
33269;DHT22;19640;50.944;5.260;2022-09-09T14:38:33;20.00;99.90
33269;DHT22;19640;50.944;5.260;2022-09-09T14:41:00;20.10;99.90
33269;DHT22;19640;50.944;5.260;2022-09-09T14:43:28;20.10;99.90
33269;DHT22;19640;50.944;5.260;2022-09-09T14:45:55;20.30;99.90
33269;DHT22;19640;50.944;5.260;2022-09-09T14:48:21;20.50;99.90
33269;DHT22;19640;50.944;5.260;2022-09-09T14:50:47;20.80;99.90
33269;DHT22;19640;50.944;5.260;2022-09-09T14:53:12;21.00;99.90
33269;DHT22;19640;50.944;5.260;2022-09-09T14:55:38;21.00;99.90
33269;DHT22;19640;50.944;5.260;2022-09-09T14:58:04;21.00;99.90
33269;DHT22;19640;50.944;5.260;2022-09-09T15:00:30;20.80;99.90
33269;DHT22;19640;50.944;5.260;2022-09-09T15:02:56;20.70;99.90
33269;DHT22;19640;50.944;5.260;2022-09-09T15:05:22;20.60;99.90
33269;DHT22;19640;50.944;5.260;2022-09-09T15:07:49;20.70;99.90
33269;DHT22;19640;50.944;5.260;2022-09-09T15:10:15;20.70;99.90
33269;DHT22;19640;50.944;5.260;2022-09-09T15:12:43;20.60;99.90
33269;DHT22;19640;50.944;5.260;2022-09-09T15:15:09;20.60;99.90
33269;DHT22;19640;50.944;5.260;2022-09-09T15:17:35;20.70;99.90
33269;DHT22;19640;50.944;5.260;2022-09-09T15:20:05;20.40;99.90
33269;DHT22;19640;50.944;5.260;2022-09-09T15:22:33;20.30;99.90
33269;DHT22;19640;50.944;5.260;2022-09-09T15:24:59;20.20;99.90
33269;DHT22;19640;50.944;5.260;2022-09-09T15:27:25;20.40;99.90
33269;DHT22;19640;50.944;5.260;2022-09-09T15:29:50;20.30;99.90
33269;DHT22;19640;50.944;5.260;2022-09-09T15:32:17;20.40;99.90
33269;DHT22;19640;50.944;5.260;2022-09-09T15:34:43;20.30;99.90
33269;DHT22;19640;50.944;5.260;2022-09-09T15:37:12;20.40;99.90
33269;DHT22;19640;50.944;5.260;2022-09-09T15:39:39;20.40;99.90
33269;DHT22;19640;50.944;5.260;2022-09-09T15:42:05;20.30;99.90
33269;DHT22;19640;50.944;5.260;2022-09-09T15:44:41;20.40;99.90
33269;DHT22;19640;50.944;5.260;2022-09-09T15:47:08;20.30;99.90
33269;DHT22;19640;50.944;5.260;2022-09-09T15:49:35;20.40;99.90
33269;DHT22;19640;50.944;5.260;2022-09-09T15:52:01;20.50;99.90
33269;DHT22;19640;50.944;5.260;2022-09-09T15:54:34;20.60;99.90
33269;DHT22;19640;50.944;5.260;2022-09-09T15:57:02;20.90;99.90
33269;DHT22;19640;50.944;5.260;2022-09-09T15:59:30;20.80;99.90
33269;DHT22;19640;50.944;5.260;2022-09-09T16:01:56;20.60;99.90
33269;DHT22;19640;50.944;5.260;2022-09-09T16:04:23;20.70;99.90
33269;DHT22;19640;50.944;5.260;2022-09-09T16:07:03;20.50;99.90
33269;DHT22;19640;50.944;5.260;2022-09-09T16:09:29;20.30;99.90
33269;DHT22;19640;50.944;5.260;2022-09-09T16:11:57;20.10;99.90
33269;DHT22;19640;50.944;5.260;2022-09-09T16:14:24;20.10;99.90
33269;DHT22;19640;50.944;5.260;2022-09-09T16:16:50;20.10;99.90
33269;DHT22;19640;50.944;5.260;2022-09-09T16:19:16;20.10;99.90
33269;DHT22;19640;50.944;5.260;2022-09-09T16:21:48;20.00;99.90
33269;DHT22;19640;50.944;5.260;2022-09-09T16:24:15;19.80;99.90
33269;DHT22;19640;50.944;5.260;2022-09-09T16:26:43;19.80;99.90
33269;DHT22;19640;50.944;5.260;2022-09-09T16:29:13;19.70;99.90
33269;DHT22;19640;50.944;5.260;2022-09-09T16:31:40;19.70;99.90
33269;DHT22;19640;50.944;5.260;2022-09-09T16:34:06;19.70;99.90
33269;DHT22;19640;50.944;5.260;2022-09-09T16:36:34;19.80;99.90
33269;DHT22;19640;50.944;5.260;2022-09-09T16:39:03;19.70;99.90
33269;DHT22;19640;50.944;5.260;2022-09-09T16:41:29;19.60;99.90
33269;DHT22;19640;50.944;5.260;2022-09-09T16:44:04;19.60;99.90
33269;DHT22;19640;50.944;5.260;2022-09-09T16:46:32;19.70;99.90
33269;DHT22;19640;50.944;5.260;2022-09-09T16:48:59;19.40;99.90
33269;DHT22;19640;50.944;5.260;2022-09-09T16:51:30;19.50;99.90
33269;DHT22;19640;50.944;5.260;2022-09-09T16:53:58;19.60;99.90
33269;DHT22;19640;50.944;5.260;2022-09-09T16:56:26;19.30;99.90
33269;DHT22;19640;50.944;5.260;2022-09-09T16:59:00;19.30;99.90
33269;DHT22;19640;50.944;5.260;2022-09-09T17:01:29;19.30;99.90
33269;DHT22;19640;50.944;5.260;2022-09-09T17:03:57;19.40;99.90
33269;DHT22;19640;50.944;5.260;2022-09-09T17:06:24;19.20;99.90
33269;DHT22;19640;50.944;5.260;2022-09-09T17:08:54;19.20;99.90
33269;DHT22;19640;50.944;5.260;2022-09-09T17:11:20;19.10;99.90
33269;DHT22;19640;50.944;5.260;2022-09-09T17:13:47;19.10;99.90
33269;DHT22;19640;50.944;5.260;2022-09-09T17:16:15;19.10;99.90
33269;DHT22;19640;50.944;5.260;2022-09-09T17:18:41;19.30;99.90
33269;DHT22;19640;50.944;5.260;2022-09-09T17:21:13;19.30;99.90
33269;DHT22;19640;50.944;5.260;2022-09-09T17:23:40;19.30;99.90
33269;DHT22;19640;50.944;5.260;2022-09-09T17:26:09;19.20;99.90
33269;DHT22;19640;50.944;5.260;2022-09-09T17:28:36;19.20;99.90
33269;DHT22;19640;50.944;5.260;2022-09-09T17:31:02;19.30;99.90
33269;DHT22;19640;50.944;5.260;2022-09-09T17:33:32;19.30;99.90
33269;DHT22;19640;50.944;5.260;2022-09-09T17:36:06;19.20;99.90
33269;DHT22;19640;50.944;5.260;2022-09-09T17:38:32;19.20;99.90
33269;DHT22;19640;50.944;5.260;2022-09-09T17:41:24;19.30;99.90
33269;DHT22;19640;50.944;5.260;2022-09-09T17:43:51;19.30;99.90
33269;DHT22;19640;50.944;5.260;2022-09-09T17:46:22;19.30;99.90
33269;DHT22;19640;50.944;5.260;2022-09-09T17:48:50;19.30;99.90
33269;DHT22;19640;50.944;5.260;2022-09-09T17:51:20;19.10;99.90
33269;DHT22;19640;50.944;5.260;2022-09-09T17:53:50;19.00;99.90
33269;DHT22;19640;50.944;5.260;2022-09-09T17:56:18;18.80;99.90
33269;DHT22;19640;50.944;5.260;2022-09-09T17:58:48;18.70;99.90
33269;DHT22;19640;50.944;5.260;2022-09-09T18:03:43;18.10;99.90
33269;DHT22;19640;50.944;5.260;2022-09-09T18:06:14;17.80;99.90
33269;DHT22;19640;50.944;5.260;2022-09-09T18:08:42;17.90;99.90
33269;DHT22;19640;50.944;5.260;2022-09-09T18:11:08;17.90;99.90
33269;DHT22;19640;50.944;5.260;2022-09-09T18:13:34;17.90;99.90
33269;DHT22;19640;50.944;5.260;2022-09-09T18:16:00;17.90;99.90